createdAt,value
2018-07-08T00:01:14.739Z,2.23
2018-07-08T00:03:42.943Z,2.77
2018-07-08T00:06:11.227Z,2.40
2018-07-08T00:08:39.601Z,2.03
2018-07-08T00:11:07.895Z,2.53
2018-07-08T07:43:20.249Z,1.85
2018-07-08T07:45:48.773Z,2.00
2018-07-08T07:48:33.023Z,2.10
2018-07-08T07:51:01.555Z,2.55
2018-07-08T07:53:30.043Z,2.15
2018-07-08T07:55:58.527Z,1.67
2018-07-08T07:58:27.080Z,1.98
2018-07-08T08:01:07.515Z,2.00
2018-07-08T08:03:35.795Z,2.05
2018-07-08T08:06:06.161Z,2.45
2018-07-08T08:08:34.554Z,1.80
2018-07-08T08:11:02.556Z,2.20
2018-07-08T08:13:30.826Z,2.00
2018-07-08T08:18:53.587Z,2.83
2018-07-08T08:21:21.927Z,2.55
2018-07-08T08:23:49.952Z,1.50
2018-07-08T08:26:18.776Z,2.10
2018-07-08T08:28:47.250Z,1.65
2018-07-08T08:31:15.666Z,1.92
2018-07-08T08:34:55.956Z,1.77
2018-07-08T08:37:25.452Z,1.60
2018-07-08T08:39:54.252Z,2.12
2018-07-08T08:42:22.630Z,1.80
2018-07-08T08:44:51.477Z,1.72
2018-07-08T08:47:25.632Z,2.02
2018-07-08T08:50:13.130Z,1.72
2018-07-08T08:52:41.472Z,1.65
2018-07-08T08:55:26.243Z,1.80
2018-07-08T08:57:54.562Z,1.80
2018-07-08T09:00:28.860Z,1.90
2018-07-08T09:05:53.515Z,1.55
2018-07-08T09:08:21.840Z,1.45
2018-07-08T09:10:49.873Z,1.45
2018-07-08T09:13:25.931Z,1.55
2018-07-08T09:15:54.230Z,1.40
2018-07-08T09:18:26.501Z,1.40
2018-07-08T09:20:54.777Z,2.02
2018-07-08T09:23:23.261Z,1.90
2018-07-08T09:25:51.360Z,1.70
2018-07-08T09:28:19.756Z,1.60
2018-07-08T09:30:48.125Z,1.60
2018-07-08T09:33:16.412Z,1.90
2018-07-08T09:36:01.144Z,1.60
2018-07-08T09:38:29.478Z,1.60
2018-07-08T09:41:04.062Z,1.32
2018-07-08T09:43:32.352Z,1.95
2018-07-08T09:46:06.532Z,1.85
2018-07-08T09:48:34.938Z,1.62
2018-07-08T09:51:03.193Z,2.00
2018-07-08T09:53:31.255Z,1.42
2018-07-08T09:55:59.315Z,1.60
2018-07-08T10:01:20.257Z,1.82
2018-07-08T10:03:52.143Z,1.40
2018-07-08T10:06:25.039Z,2.10
2018-07-08T10:09:04.026Z,1.60
2018-07-08T10:11:36.479Z,1.15
2018-07-08T10:14:05.321Z,1.50
2018-07-08T10:16:40.136Z,1.25
2018-07-08T10:19:15.225Z,1.12
2018-07-08T10:21:45.895Z,1.17
2018-07-08T10:24:27.424Z,1.55
2018-07-08T10:28:08.929Z,1.25
2018-07-08T10:30:51.495Z,0.90
2018-07-08T10:33:39.108Z,1.15
2018-07-08T10:36:07.510Z,1.20
2018-07-08T10:38:35.858Z,1.25
2018-07-08T10:44:09.747Z,1.55
2018-07-08T10:46:52.433Z,1.30
2018-07-08T10:52:23.684Z,1.27
2018-07-08T10:54:52.188Z,1.32
2018-07-08T10:57:27.815Z,0.98
2018-07-08T10:59:56.129Z,1.05
2018-07-08T11:02:24.548Z,1.00
2018-07-08T11:05:04.893Z,1.20
2018-07-08T11:07:33.348Z,1.50
2018-07-08T11:10:01.603Z,1.52
2018-07-08T11:12:29.955Z,1.37
2018-07-08T11:14:58.303Z,1.27
2018-07-08T11:17:26.616Z,1.10
2018-07-08T11:19:54.916Z,1.17
2018-07-08T11:22:23.203Z,1.10
2018-07-08T11:24:51.556Z,1.50
2018-07-08T11:27:20.385Z,1.17
2018-07-08T11:29:48.718Z,1.47
2018-07-08T11:32:17.142Z,1.30
2018-07-08T11:34:46.161Z,0.98
2018-07-08T11:37:14.814Z,1.20
2018-07-08T11:39:43.082Z,1.50
2018-07-08T11:42:11.456Z,1.32
2018-07-08T11:44:39.793Z,1.02
2018-07-08T11:47:08.444Z,1.20
2018-07-08T11:49:37.109Z,1.30
2018-07-08T11:52:05.618Z,1.00
2018-07-08T11:54:33.928Z,1.82
2018-07-08T11:57:02.396Z,1.00
2018-07-08T12:02:39.839Z,0.90
2018-07-08T12:05:08.237Z,0.70
2018-07-08T12:07:42.602Z,1.12
2018-07-08T12:10:11.090Z,0.93
2018-07-08T12:12:39.549Z,0.90
2018-07-08T12:15:07.886Z,0.72
2018-07-08T12:17:36.213Z,0.82
2018-07-08T12:20:16.745Z,0.70
2018-07-08T12:22:57.640Z,0.68
2018-07-08T12:28:31.816Z,0.50
2018-07-08T12:31:10.292Z,0.95
2018-07-08T12:33:38.555Z,1.02
2018-07-08T12:36:07.710Z,0.70
2018-07-08T12:38:36.070Z,0.70
2018-07-08T12:41:04.416Z,0.88
2018-07-08T12:43:32.671Z,1.92
2018-07-08T12:46:00.938Z,0.70
2018-07-08T12:48:29.313Z,0.80
2018-07-08T12:50:57.602Z,1.05
2018-07-08T12:53:25.849Z,0.80
2018-07-08T12:55:54.140Z,0.75
2018-07-08T12:58:22.625Z,0.72
2018-07-08T13:00:50.956Z,0.80
2018-07-08T13:03:19.282Z,1.20
2018-07-08T13:05:47.549Z,1.20
2018-07-08T13:08:15.809Z,1.40
2018-07-08T13:10:44.102Z,1.42
2018-07-08T13:13:12.394Z,1.05
2018-07-08T13:15:40.750Z,0.85
2018-07-08T13:18:09.060Z,1.20
2018-07-08T13:20:37.318Z,1.05
2018-07-08T13:23:05.572Z,1.12
2018-07-08T13:25:33.869Z,1.22
2018-07-08T13:28:02.159Z,1.95
2018-07-08T13:33:23.553Z,0.95
2018-07-08T13:35:51.875Z,1.00
2018-07-08T13:38:20.200Z,0.98
2018-07-08T13:40:48.684Z,1.20
2018-07-08T13:43:16.970Z,1.27
2018-07-08T13:45:45.248Z,1.00
2018-07-08T13:48:13.549Z,1.40
2018-07-08T13:50:42.428Z,1.25
2018-07-08T13:53:11.006Z,0.95
2018-07-08T13:55:57.837Z,1.70
2018-07-08T13:58:26.156Z,1.40
2018-07-08T14:00:54.432Z,1.42
2018-07-08T14:04:26.139Z,2.08
2018-07-08T14:06:55.373Z,1.40
2018-07-08T14:09:23.853Z,1.12
2018-07-08T14:11:52.146Z,1.27
2018-07-08T14:14:20.397Z,1.20
2018-07-08T14:16:48.720Z,1.32
2018-07-08T14:19:17.236Z,1.42
2018-07-08T14:21:45.541Z,1.20
2018-07-08T14:24:13.927Z,1.17
2018-07-08T14:26:42.235Z,1.25
2018-07-08T14:29:10.712Z,1.52
2018-07-08T14:31:39.209Z,1.37
2018-07-08T14:34:07.548Z,1.65
2018-07-08T14:36:35.869Z,1.90
2018-07-08T14:39:04.962Z,1.50
2018-07-08T14:41:33.243Z,1.80
2018-07-08T14:44:01.572Z,1.57
2018-07-08T14:46:30.017Z,2.00
2018-07-08T14:49:04.440Z,2.20
2018-07-08T14:51:32.852Z,2.00
2018-07-08T14:54:00.875Z,1.77
2018-07-08T14:56:29.268Z,1.80
2018-07-08T14:58:57.706Z,2.65
2018-07-08T15:01:26.012Z,4.70
2018-07-08T15:03:54.352Z,1.90
2018-07-08T15:06:22.639Z,1.67
2018-07-08T15:08:51.038Z,2.15
2018-07-08T15:11:19.375Z,1.70
2018-07-08T15:13:47.526Z,1.80
2018-07-08T15:16:15.917Z,2.22
2018-07-08T15:18:44.685Z,2.65
2018-07-08T15:24:17.642Z,1.80
2018-07-08T15:26:46.028Z,2.05
2018-07-08T15:29:14.371Z,2.02
2018-07-08T15:31:42.366Z,2.20
2018-07-08T15:34:29.094Z,2.35
2018-07-08T15:36:57.293Z,2.65
2018-07-08T15:39:44.403Z,1.72
2018-07-08T15:42:25.201Z,2.00
2018-07-08T15:44:53.473Z,1.92
2018-07-08T15:47:21.987Z,2.40
2018-07-08T15:49:50.155Z,2.00
2018-07-08T15:52:18.475Z,1.90
2018-07-08T15:54:56.950Z,2.22
2018-07-08T15:57:25.375Z,2.00
2018-07-08T15:59:59.062Z,2.17
2018-07-08T16:02:27.042Z,2.60
2018-07-08T16:04:55.417Z,2.60
2018-07-08T16:07:23.735Z,2.50
2018-07-08T16:09:52.008Z,2.60
2018-07-08T16:12:20.329Z,3.22
2018-07-08T16:14:48.613Z,2.33
2018-07-08T16:17:16.959Z,2.30
2018-07-08T16:19:44.980Z,2.20
2018-07-08T16:22:13.259Z,2.30
2018-07-08T16:24:41.584Z,2.42
2018-07-08T16:27:22.536Z,2.20
2018-07-08T16:29:50.854Z,3.27
2018-07-08T16:32:19.104Z,3.22
2018-07-08T16:34:47.107Z,3.40
2018-07-08T16:37:15.436Z,2.87
2018-07-08T16:39:43.767Z,2.25
2018-07-08T16:42:31.154Z,2.00
2018-07-08T16:44:59.174Z,2.40
2018-07-08T16:47:27.478Z,2.50
2018-07-08T16:49:55.750Z,2.30
2018-07-08T16:52:24.197Z,2.62
2018-07-08T16:54:52.886Z,2.90
2018-07-08T16:57:21.174Z,2.47
2018-07-08T16:59:49.492Z,2.10
2018-07-08T17:02:17.634Z,2.20
2018-07-08T17:04:45.877Z,2.58
2018-07-08T17:07:17.792Z,2.27
2018-07-08T17:09:46.086Z,2.35
2018-07-08T17:12:14.427Z,2.33
2018-07-08T17:14:42.745Z,1.98
2018-07-08T17:17:11.681Z,2.10
2018-07-08T17:19:39.980Z,2.77
2018-07-08T17:22:08.304Z,3.02
2018-07-08T17:24:36.596Z,2.10
2018-07-08T17:27:05.013Z,2.30
2018-07-08T17:29:33.316Z,2.30
2018-07-08T17:32:01.559Z,2.17
2018-07-08T17:34:31.870Z,2.08
2018-07-08T17:37:00.238Z,2.10
2018-07-08T17:39:28.534Z,2.42
2018-07-08T17:41:56.914Z,2.62
2018-07-08T17:44:25.323Z,2.65
2018-07-08T17:46:53.716Z,2.30
2018-07-08T17:52:07.278Z,2.47
2018-07-08T17:54:37.013Z,2.08
2018-07-08T17:57:06.511Z,3.47
2018-07-08T17:59:37.758Z,2.15
2018-07-08T18:02:07.685Z,2.27
2018-07-08T18:04:37.324Z,1.70
2018-07-08T18:07:06.525Z,2.20
2018-07-08T18:09:39.585Z,1.80
2018-07-08T18:15:01.313Z,2.15
2018-07-08T18:17:46.267Z,2.12
2018-07-08T18:20:19.164Z,2.00
2018-07-08T18:22:49.930Z,2.00
2018-07-08T18:25:20.803Z,2.45
2018-07-08T18:27:50.524Z,1.90
2018-07-08T18:30:21.064Z,2.30
2018-07-08T18:32:51.356Z,4.08
2018-07-08T18:35:20.834Z,2.77
2018-07-08T18:37:50.711Z,1.80
2018-07-08T18:40:24.702Z,1.80
2018-07-08T18:42:56.492Z,2.08
2018-07-08T18:45:37.765Z,1.90
2018-07-08T18:48:08.624Z,1.70
2018-07-08T18:50:43.621Z,2.20
2018-07-08T18:53:19.605Z,1.80
2018-07-08T18:55:56.938Z,1.87
2018-07-08T18:58:25.605Z,1.77
2018-07-08T19:00:54.069Z,1.82
2018-07-08T19:03:22.599Z,4.28
2018-07-08T19:05:51.248Z,2.02
2018-07-08T19:08:19.609Z,1.60
2018-07-08T19:10:48.127Z,1.77
2018-07-08T19:13:16.476Z,2.70
2018-07-08T19:15:45.160Z,2.85
2018-07-08T19:18:13.528Z,2.47
2018-07-08T19:20:41.962Z,2.08
2018-07-08T19:23:10.425Z,2.47
2018-07-08T19:25:38.519Z,1.90
2018-07-08T19:28:07.290Z,1.77
2018-07-08T19:30:35.842Z,1.85
2018-07-08T19:33:04.489Z,1.95
2018-07-08T19:35:32.959Z,1.82
2018-07-08T19:38:01.349Z,1.75
2018-07-08T19:40:29.762Z,2.12
2018-07-08T19:42:58.041Z,2.00
2018-07-08T19:45:26.363Z,2.15
2018-07-08T19:47:54.660Z,1.90
2018-07-08T19:50:24.000Z,1.70
2018-07-08T19:52:52.331Z,1.90
2018-07-08T19:55:20.571Z,1.98
2018-07-08T19:57:48.571Z,2.62
2018-07-08T20:00:16.873Z,2.50
2018-07-08T20:02:45.209Z,2.00
2018-07-08T20:05:13.592Z,1.92
2018-07-08T20:07:41.934Z,2.10
2018-07-08T20:10:10.201Z,2.02
2018-07-08T20:12:38.471Z,1.90
2018-07-08T20:15:06.743Z,2.22
2018-07-08T20:17:35.088Z,2.42
2018-07-08T20:20:03.387Z,2.00
2018-07-08T20:22:31.644Z,2.12
2018-07-08T20:24:59.869Z,1.98
2018-07-08T20:27:28.206Z,2.02
2018-07-08T20:29:57.077Z,2.25
2018-07-08T20:32:25.531Z,2.22
2018-07-08T20:34:53.761Z,2.40
2018-07-08T20:37:22.148Z,2.10
2018-07-08T20:39:50.517Z,2.10
2018-07-08T20:42:18.846Z,2.10
2018-07-08T20:44:47.140Z,2.30
2018-07-08T20:47:15.438Z,5.00
2018-07-08T20:49:43.760Z,2.00
2018-07-08T20:52:12.124Z,2.45
2018-07-08T20:54:40.516Z,1.90
2018-07-08T20:57:08.817Z,2.15
2018-07-08T20:59:37.125Z,2.47
2018-07-08T21:02:05.438Z,2.50
2018-07-08T21:04:33.760Z,2.60
2018-07-08T21:07:02.072Z,2.40
2018-07-08T21:09:30.464Z,3.10
2018-07-08T21:11:58.803Z,2.20
2018-07-08T21:14:27.167Z,2.17
2018-07-08T21:16:55.464Z,2.20
2018-07-08T21:19:23.798Z,2.22
2018-07-08T21:21:53.040Z,2.37
2018-07-08T21:24:21.358Z,2.55
2018-07-08T21:26:49.626Z,2.50
2018-07-08T21:29:17.923Z,2.37
2018-07-08T21:31:46.221Z,2.12
2018-07-08T21:34:14.248Z,2.42
2018-07-08T21:36:42.606Z,2.27
2018-07-08T21:39:11.506Z,2.47
2018-07-08T21:41:40.543Z,2.45
2018-07-08T21:44:08.687Z,2.25
2018-07-08T21:46:36.961Z,1.90
2018-07-08T21:49:05.520Z,2.10
2018-07-08T21:51:33.877Z,2.17
2018-07-08T21:54:02.165Z,1.87
2018-07-08T21:56:30.522Z,2.00
2018-07-08T21:58:59.004Z,2.33
2018-07-08T22:01:29.313Z,2.30
2018-07-08T22:03:57.356Z,2.20
2018-07-08T22:06:25.668Z,2.10
2018-07-08T22:08:53.956Z,2.10
2018-07-08T22:11:22.249Z,1.95
2018-07-08T22:13:50.949Z,1.77
2018-07-08T22:16:19.201Z,2.10
2018-07-08T22:18:47.537Z,2.17
2018-07-08T22:21:15.839Z,2.08
2018-07-08T22:23:43.919Z,1.98
2018-07-08T22:26:12.210Z,2.10
2018-07-08T22:28:40.513Z,2.47
2018-07-08T22:31:08.856Z,2.25
2018-07-08T22:33:37.168Z,2.27
2018-07-08T22:36:05.499Z,1.82
2018-07-08T22:38:33.795Z,2.20
2018-07-08T22:41:02.110Z,1.85
2018-07-08T22:43:30.398Z,2.12
2018-07-08T22:45:58.706Z,2.30
2018-07-08T22:48:27.053Z,2.37
2018-07-08T22:50:55.349Z,2.57
2018-07-08T22:53:23.689Z,2.37
2018-07-08T22:55:51.959Z,2.35
2018-07-08T22:58:20.606Z,2.17
2018-07-08T23:01:00.187Z,2.30
2018-07-08T23:03:52.658Z,2.30
2018-07-08T23:06:21.495Z,2.10
2018-07-08T23:08:50.610Z,2.20
2018-07-08T23:11:19.574Z,1.90
2018-07-08T23:13:48.978Z,2.50
2018-07-08T23:16:17.281Z,2.00
2018-07-08T23:18:45.629Z,2.00
2018-07-08T23:21:13.952Z,2.00
2018-07-08T23:23:42.220Z,2.35
2018-07-08T23:26:10.545Z,1.95
2018-07-08T23:28:38.643Z,2.50
2018-07-08T23:31:07.857Z,2.20
2018-07-08T23:33:36.180Z,2.02
2018-07-08T23:36:05.094Z,2.23
2018-07-08T23:38:33.582Z,2.40
2018-07-08T23:41:02.879Z,2.37
2018-07-08T23:43:31.391Z,1.93
2018-07-08T23:46:00.264Z,2.53
2018-07-08T23:48:28.570Z,2.37
2018-07-08T23:50:56.899Z,2.20
2018-07-08T23:53:25.257Z,2.30
2018-07-08T23:55:53.395Z,2.10
2018-07-08T23:58:21.671Z,2.43
